sensor_id;sensor_type;location;lat;lon;timestamp;P1;durP1;ratioP1;P2;durP2;ratioP2
26750;SDS011;14345;48.272;25.926;2022-12-18T00:01:14;53.38;;;30.33;;
26750;SDS011;14345;48.272;25.926;2022-12-18T00:06:06;58.78;;;31.40;;
26750;SDS011;14345;48.272;25.926;2022-12-18T00:08:32;53.88;;;30.20;;
26750;SDS011;14345;48.272;25.926;2022-12-18T00:11:05;52.25;;;29.73;;
26750;SDS011;14345;48.272;25.926;2022-12-18T00:13:31;50.67;;;28.40;;
26750;SDS011;14345;48.272;25.926;2022-12-18T00:16:03;57.45;;;32.20;;
26750;SDS011;14345;48.272;25.926;2022-12-18T00:18:29;56.20;;;31.73;;
26750;SDS011;14345;48.272;25.926;2022-12-18T00:20:58;55.22;;;32.28;;
26750;SDS011;14345;48.272;25.926;2022-12-18T00:23:25;57.28;;;31.98;;
26750;SDS011;14345;48.272;25.926;2022-12-18T00:25:51;62.97;;;35.08;;
26750;SDS011;14345;48.272;25.926;2022-12-18T00:28:17;58.22;;;33.03;;
26750;SDS011;14345;48.272;25.926;2022-12-18T00:30:43;58.78;;;33.53;;
26750;SDS011;14345;48.272;25.926;2022-12-18T00:33:09;63.80;;;33.83;;
26750;SDS011;14345;48.272;25.926;2022-12-18T00:35:35;64.82;;;32.63;;
26750;SDS011;14345;48.272;25.926;2022-12-18T00:38:01;59.15;;;33.13;;
26750;SDS011;14345;48.272;25.926;2022-12-18T00:40:27;64.95;;;35.72;;
26750;SDS011;14345;48.272;25.926;2022-12-18T00:42:53;65.05;;;35.17;;
26750;SDS011;14345;48.272;25.926;2022-12-18T00:45:26;61.40;;;33.88;;
26750;SDS011;14345;48.272;25.926;2022-12-18T00:47:52;68.88;;;37.70;;
26750;SDS011;14345;48.272;25.926;2022-12-18T00:50:18;65.00;;;35.97;;
26750;SDS011;14345;48.272;25.926;2022-12-18T00:52:44;62.00;;;35.55;;
26750;SDS011;14345;48.272;25.926;2022-12-18T00:55:11;67.25;;;36.50;;
26750;SDS011;14345;48.272;25.926;2022-12-18T00:57:37;73.22;;;38.75;;
26750;SDS011;14345;48.272;25.926;2022-12-18T01:00:04;70.03;;;36.83;;
26750;SDS011;14345;48.272;25.926;2022-12-18T01:02:30;68.45;;;36.45;;
26750;SDS011;14345;48.272;25.926;2022-12-18T01:04:56;70.07;;;37.90;;
26750;SDS011;14345;48.272;25.926;2022-12-18T01:07:22;66.82;;;36.55;;
26750;SDS011;14345;48.272;25.926;2022-12-18T01:09:48;67.28;;;36.70;;
26750;SDS011;14345;48.272;25.926;2022-12-18T01:12:14;68.25;;;36.85;;
26750;SDS011;14345;48.272;25.926;2022-12-18T01:14:40;65.97;;;37.28;;
26750;SDS011;14345;48.272;25.926;2022-12-18T01:17:06;67.05;;;37.05;;
26750;SDS011;14345;48.272;25.926;2022-12-18T01:19:32;66.53;;;35.35;;
26750;SDS011;14345;48.272;25.926;2022-12-18T01:21:58;64.53;;;35.08;;
26750;SDS011;14345;48.272;25.926;2022-12-18T01:24:24;68.82;;;37.83;;
26750;SDS011;14345;48.272;25.926;2022-12-18T01:26:50;64.07;;;35.13;;
26750;SDS011;14345;48.272;25.926;2022-12-18T01:29:16;64.20;;;34.03;;
26750;SDS011;14345;48.272;25.926;2022-12-18T01:31:42;67.20;;;35.45;;
26750;SDS011;14345;48.272;25.926;2022-12-18T01:34:08;62.75;;;33.33;;
26750;SDS011;14345;48.272;25.926;2022-12-18T01:36:37;65.15;;;35.60;;
26750;SDS011;14345;48.272;25.926;2022-12-18T01:39:05;66.90;;;34.78;;
26750;SDS011;14345;48.272;25.926;2022-12-18T01:41:32;61.83;;;33.38;;
26750;SDS011;14345;48.272;25.926;2022-12-18T01:47:02;61.72;;;32.63;;
26750;SDS011;14345;48.272;25.926;2022-12-18T01:49:28;66.78;;;35.15;;
26750;SDS011;14345;48.272;25.926;2022-12-18T01:51:54;56.85;;;30.52;;
26750;SDS011;14345;48.272;25.926;2022-12-18T01:54:20;66.90;;;33.58;;
26750;SDS011;14345;48.272;25.926;2022-12-18T01:56:46;59.38;;;32.13;;
26750;SDS011;14345;48.272;25.926;2022-12-18T01:59:12;62.80;;;34.25;;
26750;SDS011;14345;48.272;25.926;2022-12-18T02:01:38;65.35;;;33.70;;
26750;SDS011;14345;48.272;25.926;2022-12-18T02:04:23;61.60;;;33.70;;
26750;SDS011;14345;48.272;25.926;2022-12-18T02:06:51;60.75;;;33.25;;
26750;SDS011;14345;48.272;25.926;2022-12-18T02:09:21;61.03;;;34.10;;
26750;SDS011;14345;48.272;25.926;2022-12-18T02:14:32;58.08;;;32.15;;
26750;SDS011;14345;48.272;25.926;2022-12-18T02:27:39;59.80;;;31.73;;
26750;SDS011;14345;48.272;25.926;2022-12-18T02:30:06;58.15;;;32.47;;
26750;SDS011;14345;48.272;25.926;2022-12-18T02:32:37;53.60;;;29.30;;
26750;SDS011;14345;48.272;25.926;2022-12-18T02:35:05;60.72;;;33.03;;
26750;SDS011;14345;48.272;25.926;2022-12-18T02:37:32;59.05;;;31.17;;
26750;SDS011;14345;48.272;25.926;2022-12-18T02:39:59;51.28;;;28.55;;
26750;SDS011;14345;48.272;25.926;2022-12-18T02:42:25;61.92;;;32.72;;
26750;SDS011;14345;48.272;25.926;2022-12-18T02:44:53;53.38;;;29.02;;
26750;SDS011;14345;48.272;25.926;2022-12-18T02:47:20;57.83;;;31.35;;
26750;SDS011;14345;48.272;25.926;2022-12-18T02:54:55;49.92;;;28.05;;
26750;SDS011;14345;48.272;25.926;2022-12-18T03:02:39;56.28;;;30.13;;
26750;SDS011;14345;48.272;25.926;2022-12-18T03:05:12;52.58;;;27.42;;
26750;SDS011;14345;48.272;25.926;2022-12-18T03:07:50;52.03;;;27.83;;
26750;SDS011;14345;48.272;25.926;2022-12-18T03:10:19;60.00;;;31.05;;
26750;SDS011;14345;48.272;25.926;2022-12-18T03:12:48;54.47;;;29.50;;
26750;SDS011;14345;48.272;25.926;2022-12-18T03:15:19;52.70;;;28.27;;
26750;SDS011;14345;48.272;25.926;2022-12-18T03:17:48;57.05;;;29.77;;
26750;SDS011;14345;48.272;25.926;2022-12-18T03:20:17;49.20;;;27.33;;
26750;SDS011;14345;48.272;25.926;2022-12-18T03:22:45;55.72;;;28.67;;
26750;SDS011;14345;48.272;25.926;2022-12-18T03:25:13;54.47;;;29.90;;
26750;SDS011;14345;48.272;25.926;2022-12-18T03:27:42;53.67;;;29.15;;
26750;SDS011;14345;48.272;25.926;2022-12-18T03:30:10;59.17;;;30.52;;
26750;SDS011;14345;48.272;25.926;2022-12-18T03:32:42;57.97;;;29.20;;
26750;SDS011;14345;48.272;25.926;2022-12-18T03:35:10;58.72;;;30.70;;
26750;SDS011;14345;48.272;25.926;2022-12-18T03:37:38;53.40;;;30.00;;
26750;SDS011;14345;48.272;25.926;2022-12-18T03:40:05;55.65;;;29.48;;
26750;SDS011;14345;48.272;25.926;2022-12-18T03:42:45;53.45;;;28.33;;
26750;SDS011;14345;48.272;25.926;2022-12-18T03:45:20;55.25;;;29.60;;
26750;SDS011;14345;48.272;25.926;2022-12-18T03:50:37;59.28;;;31.15;;
26750;SDS011;14345;48.272;25.926;2022-12-18T03:53:09;63.15;;;32.15;;
26750;SDS011;14345;48.272;25.926;2022-12-18T03:55:39;60.85;;;31.27;;
26750;SDS011;14345;48.272;25.926;2022-12-18T03:58:06;56.97;;;30.73;;
26750;SDS011;14345;48.272;25.926;2022-12-18T04:00:33;58.95;;;31.85;;
26750;SDS011;14345;48.272;25.926;2022-12-18T04:02:59;62.65;;;31.75;;
26750;SDS011;14345;48.272;25.926;2022-12-18T04:05:26;61.08;;;32.45;;
26750;SDS011;14345;48.272;25.926;2022-12-18T04:07:52;60.13;;;30.60;;
26750;SDS011;14345;48.272;25.926;2022-12-18T04:10:20;66.10;;;33.13;;
26750;SDS011;14345;48.272;25.926;2022-12-18T04:12:46;59.38;;;30.90;;
26750;SDS011;14345;48.272;25.926;2022-12-18T04:15:12;59.60;;;31.70;;
26750;SDS011;14345;48.272;25.926;2022-12-18T04:17:38;59.95;;;32.78;;
26750;SDS011;14345;48.272;25.926;2022-12-18T04:20:07;59.70;;;31.30;;
26750;SDS011;14345;48.272;25.926;2022-12-18T04:22:33;60.72;;;32.25;;
26750;SDS011;14345;48.272;25.926;2022-12-18T04:24:59;63.55;;;31.88;;
26750;SDS011;14345;48.272;25.926;2022-12-18T04:27:25;55.95;;;29.23;;
26750;SDS011;14345;48.272;25.926;2022-12-18T04:29:51;55.72;;;29.52;;
26750;SDS011;14345;48.272;25.926;2022-12-18T04:32:17;54.70;;;30.38;;
26750;SDS011;14345;48.272;25.926;2022-12-18T04:34:43;61.97;;;31.45;;
26750;SDS011;14345;48.272;25.926;2022-12-18T04:37:09;58.95;;;30.77;;
26750;SDS011;14345;48.272;25.926;2022-12-18T04:39:36;55.92;;;29.48;;
26750;SDS011;14345;48.272;25.926;2022-12-18T04:42:02;53.63;;;29.40;;
26750;SDS011;14345;48.272;25.926;2022-12-18T04:44:28;53.78;;;29.17;;
26750;SDS011;14345;48.272;25.926;2022-12-18T04:46:54;56.40;;;29.48;;
26750;SDS011;14345;48.272;25.926;2022-12-18T04:49:20;53.92;;;27.48;;
26750;SDS011;14345;48.272;25.926;2022-12-18T04:51:46;56.58;;;28.77;;
26750;SDS011;14345;48.272;25.926;2022-12-18T04:54:12;54.90;;;29.42;;
26750;SDS011;14345;48.272;25.926;2022-12-18T04:56:39;54.15;;;30.05;;
26750;SDS011;14345;48.272;25.926;2022-12-18T04:59:05;51.58;;;27.27;;
26750;SDS011;14345;48.272;25.926;2022-12-18T05:01:31;51.65;;;27.48;;
26750;SDS011;14345;48.272;25.926;2022-12-18T05:03:57;49.72;;;26.92;;
26750;SDS011;14345;48.272;25.926;2022-12-18T05:06:23;49.65;;;27.42;;
26750;SDS011;14345;48.272;25.926;2022-12-18T05:08:49;52.92;;;27.35;;
26750;SDS011;14345;48.272;25.926;2022-12-18T05:11:15;50.38;;;27.55;;
26750;SDS011;14345;48.272;25.926;2022-12-18T05:13:41;47.00;;;25.20;;
26750;SDS011;14345;48.272;25.926;2022-12-18T05:16:07;57.80;;;28.92;;
26750;SDS011;14345;48.272;25.926;2022-12-18T05:18:33;51.47;;;26.55;;
26750;SDS011;14345;48.272;25.926;2022-12-18T05:20:59;48.78;;;25.67;;
26750;SDS011;14345;48.272;25.926;2022-12-18T05:23:25;45.08;;;24.88;;
26750;SDS011;14345;48.272;25.926;2022-12-18T05:25:52;44.95;;;23.98;;
26750;SDS011;14345;48.272;25.926;2022-12-18T05:28:18;48.88;;;24.80;;
26750;SDS011;14345;48.272;25.926;2022-12-18T05:30:51;45.00;;;24.70;;
26750;SDS011;14345;48.272;25.926;2022-12-18T05:33:18;46.53;;;25.83;;
26750;SDS011;14345;48.272;25.926;2022-12-18T05:35:44;51.65;;;27.40;;
26750;SDS011;14345;48.272;25.926;2022-12-18T05:38:10;56.10;;;29.08;;
26750;SDS011;14345;48.272;25.926;2022-12-18T05:40:36;51.45;;;27.08;;
26750;SDS011;14345;48.272;25.926;2022-12-18T05:43:02;50.38;;;27.33;;
26750;SDS011;14345;48.272;25.926;2022-12-18T05:45:28;58.55;;;28.90;;
26750;SDS011;14345;48.272;25.926;2022-12-18T05:47:54;53.72;;;28.77;;
26750;SDS011;14345;48.272;25.926;2022-12-18T05:50:20;55.05;;;29.00;;
26750;SDS011;14345;48.272;25.926;2022-12-18T05:52:46;56.05;;;30.60;;
26750;SDS011;14345;48.272;25.926;2022-12-18T05:55:12;55.67;;;29.80;;
26750;SDS011;14345;48.272;25.926;2022-12-18T05:57:38;58.13;;;31.33;;
26750;SDS011;14345;48.272;25.926;2022-12-18T08:27:52;58.03;;;27.38;;
26750;SDS011;14345;48.272;25.926;2022-12-18T08:30:18;68.63;;;29.38;;
26750;SDS011;14345;48.272;25.926;2022-12-18T08:32:44;62.30;;;27.58;;
26750;SDS011;14345;48.272;25.926;2022-12-18T08:35:10;66.05;;;28.88;;
26750;SDS011;14345;48.272;25.926;2022-12-18T08:37:37;62.40;;;28.17;;
26750;SDS011;14345;48.272;25.926;2022-12-18T08:40:03;62.80;;;27.98;;
26750;SDS011;14345;48.272;25.926;2022-12-18T08:42:29;60.00;;;27.02;;
26750;SDS011;14345;48.272;25.926;2022-12-18T08:45:14;64.75;;;29.13;;
26750;SDS011;14345;48.272;25.926;2022-12-18T08:47:41;67.38;;;29.35;;
26750;SDS011;14345;48.272;25.926;2022-12-18T08:50:08;63.83;;;27.80;;
26750;SDS011;14345;48.272;25.926;2022-12-18T08:52:34;58.35;;;26.70;;
26750;SDS011;14345;48.272;25.926;2022-12-18T08:55:00;67.90;;;29.05;;
26750;SDS011;14345;48.272;25.926;2022-12-18T08:57:26;64.00;;;27.15;;
26750;SDS011;14345;48.272;25.926;2022-12-18T08:59:52;62.30;;;29.30;;
26750;SDS011;14345;48.272;25.926;2022-12-18T09:02:19;65.97;;;28.98;;
26750;SDS011;14345;48.272;25.926;2022-12-18T09:04:46;67.43;;;27.80;;
26750;SDS011;14345;48.272;25.926;2022-12-18T09:07:12;58.45;;;26.65;;
26750;SDS011;14345;48.272;25.926;2022-12-18T09:09:38;65.90;;;28.23;;
26750;SDS011;14345;48.272;25.926;2022-12-18T09:12:04;61.75;;;29.33;;
26750;SDS011;14345;48.272;25.926;2022-12-18T09:14:30;63.30;;;29.08;;
26750;SDS011;14345;48.272;25.926;2022-12-18T09:16:56;62.97;;;27.23;;
26750;SDS011;14345;48.272;25.926;2022-12-18T09:19:23;66.25;;;27.17;;
26750;SDS011;14345;48.272;25.926;2022-12-18T09:21:51;70.88;;;29.75;;
26750;SDS011;14345;48.272;25.926;2022-12-18T09:24:17;59.45;;;26.65;;
26750;SDS011;14345;48.272;25.926;2022-12-18T09:26:43;56.92;;;24.05;;
26750;SDS011;14345;48.272;25.926;2022-12-18T09:29:09;61.05;;;25.63;;
26750;SDS011;14345;48.272;25.926;2022-12-18T09:31:35;58.47;;;26.08;;
26750;SDS011;14345;48.272;25.926;2022-12-18T09:34:02;49.35;;;24.38;;
26750;SDS011;14345;48.272;25.926;2022-12-18T09:36:28;60.85;;;27.40;;
26750;SDS011;14345;48.272;25.926;2022-12-18T09:38:54;56.22;;;25.33;;
26750;SDS011;14345;48.272;25.926;2022-12-18T09:46:38;59.35;;;26.65;;
26750;SDS011;14345;48.272;25.926;2022-12-18T09:49:11;49.33;;;23.38;;
26750;SDS011;14345;48.272;25.926;2022-12-18T09:51:39;60.50;;;26.30;;
26750;SDS011;14345;48.272;25.926;2022-12-18T09:54:11;54.15;;;24.58;;
26750;SDS011;14345;48.272;25.926;2022-12-18T09:56:40;57.63;;;25.20;;
26750;SDS011;14345;48.272;25.926;2022-12-18T09:59:09;55.35;;;25.45;;
26750;SDS011;14345;48.272;25.926;2022-12-18T10:01:39;58.65;;;27.13;;
26750;SDS011;14345;48.272;25.926;2022-12-18T10:04:07;65.93;;;27.15;;
26750;SDS011;14345;48.272;25.926;2022-12-18T14:20:19;43.22;;;21.40;;
26750;SDS011;14345;48.272;25.926;2022-12-18T14:22:46;46.72;;;23.20;;
26750;SDS011;14345;48.272;25.926;2022-12-18T14:27:43;48.58;;;23.88;;
26750;SDS011;14345;48.272;25.926;2022-12-18T14:33:02;49.30;;;24.17;;
26750;SDS011;14345;48.272;25.926;2022-12-18T14:35:28;45.17;;;22.52;;
26750;SDS011;14345;48.272;25.926;2022-12-18T14:38:08;47.72;;;24.20;;
26750;SDS011;14345;48.272;25.926;2022-12-18T14:40:34;53.13;;;26.75;;
26750;SDS011;14345;48.272;25.926;2022-12-18T14:43:00;53.63;;;25.27;;
26750;SDS011;14345;48.272;25.926;2022-12-18T14:45:39;46.17;;;23.58;;
26750;SDS011;14345;48.272;25.926;2022-12-18T14:48:07;49.25;;;24.52;;
26750;SDS011;14345;48.272;25.926;2022-12-18T14:50:33;57.45;;;26.17;;
26750;SDS011;14345;48.272;25.926;2022-12-18T14:52:59;57.35;;;25.95;;
26750;SDS011;14345;48.272;25.926;2022-12-18T14:55:25;53.60;;;25.10;;
26750;SDS011;14345;48.272;25.926;2022-12-18T14:57:52;49.45;;;23.02;;
26750;SDS011;14345;48.272;25.926;2022-12-18T15:00:20;55.15;;;26.70;;
26750;SDS011;14345;48.272;25.926;2022-12-18T15:02:48;54.40;;;26.77;;
26750;SDS011;14345;48.272;25.926;2022-12-18T15:05:20;53.17;;;27.33;;
26750;SDS011;14345;48.272;25.926;2022-12-18T15:07:50;58.88;;;27.48;;
26750;SDS011;14345;48.272;25.926;2022-12-18T15:10:20;61.85;;;28.55;;
26750;SDS011;14345;48.272;25.926;2022-12-18T15:13:06;55.40;;;27.65;;
26750;SDS011;14345;48.272;25.926;2022-12-18T15:18:04;55.42;;;25.48;;
26750;SDS011;14345;48.272;25.926;2022-12-18T15:23:22;59.00;;;26.75;;
26750;SDS011;14345;48.272;25.926;2022-12-18T15:25:54;54.47;;;26.05;;
26750;SDS011;14345;48.272;25.926;2022-12-18T15:28:22;52.53;;;25.42;;
26750;SDS011;14345;48.272;25.926;2022-12-18T15:33:39;56.17;;;27.10;;
26750;SDS011;14345;48.272;25.926;2022-12-18T15:36:12;54.58;;;27.92;;
26750;SDS011;14345;48.272;25.926;2022-12-18T15:38:38;58.13;;;28.13;;
26750;SDS011;14345;48.272;25.926;2022-12-18T15:41:22;60.38;;;29.58;;
26750;SDS011;14345;48.272;25.926;2022-12-18T15:43:49;60.35;;;29.65;;
26750;SDS011;14345;48.272;25.926;2022-12-18T15:46:20;54.10;;;28.13;;
26750;SDS011;14345;48.272;25.926;2022-12-18T15:48:50;61.03;;;28.48;;
26750;SDS011;14345;48.272;25.926;2022-12-18T15:51:37;54.10;;;26.38;;
26750;SDS011;14345;48.272;25.926;2022-12-18T15:54:03;57.33;;;28.23;;
26750;SDS011;14345;48.272;25.926;2022-12-18T15:56:30;60.75;;;29.42;;
26750;SDS011;14345;48.272;25.926;2022-12-18T20:20:26;40.40;;;20.58;;
26750;SDS011;14345;48.272;25.926;2022-12-18T20:22:52;43.05;;;22.65;;
26750;SDS011;14345;48.272;25.926;2022-12-18T20:25:19;38.97;;;21.40;;
26750;SDS011;14345;48.272;25.926;2022-12-18T20:27:45;40.35;;;21.63;;
26750;SDS011;14345;48.272;25.926;2022-12-18T20:30:11;46.78;;;23.30;;
26750;SDS011;14345;48.272;25.926;2022-12-18T20:32:37;42.40;;;22.27;;
26750;SDS011;14345;48.272;25.926;2022-12-18T20:35:04;43.80;;;23.30;;
26750;SDS011;14345;48.272;25.926;2022-12-18T20:37:30;46.20;;;22.02;;
26750;SDS011;14345;48.272;25.926;2022-12-18T20:39:56;35.92;;;19.95;;
26750;SDS011;14345;48.272;25.926;2022-12-18T20:42:22;38.22;;;20.48;;
26750;SDS011;14345;48.272;25.926;2022-12-18T20:44:49;34.03;;;18.65;;
26750;SDS011;14345;48.272;25.926;2022-12-18T20:47:15;38.60;;;20.10;;
26750;SDS011;14345;48.272;25.926;2022-12-18T20:49:41;34.55;;;18.77;;
26750;SDS011;14345;48.272;25.926;2022-12-18T20:52:07;39.17;;;20.10;;
26750;SDS011;14345;48.272;25.926;2022-12-18T20:54:33;39.58;;;20.75;;
26750;SDS011;14345;48.272;25.926;2022-12-18T20:56:59;33.60;;;19.60;;
26750;SDS011;14345;48.272;25.926;2022-12-18T20:59:26;32.80;;;18.70;;
26750;SDS011;14345;48.272;25.926;2022-12-18T21:01:52;39.47;;;19.35;;
26750;SDS011;14345;48.272;25.926;2022-12-18T21:04:18;36.03;;;20.50;;
26750;SDS011;14345;48.272;25.926;2022-12-18T21:06:44;41.55;;;20.52;;
26750;SDS011;14345;48.272;25.926;2022-12-18T21:09:11;37.97;;;20.20;;
26750;SDS011;14345;48.272;25.926;2022-12-18T21:11:37;36.90;;;20.27;;
26750;SDS011;14345;48.272;25.926;2022-12-18T21:14:35;40.45;;;21.63;;
26750;SDS011;14345;48.272;25.926;2022-12-18T21:17:02;38.92;;;20.50;;
26750;SDS011;14345;48.272;25.926;2022-12-18T21:19:28;38.70;;;20.95;;
26750;SDS011;14345;48.272;25.926;2022-12-18T21:21:54;35.00;;;19.08;;
26750;SDS011;14345;48.272;25.926;2022-12-18T21:24:21;35.08;;;19.70;;
26750;SDS011;14345;48.272;25.926;2022-12-18T21:26:47;38.83;;;20.35;;
26750;SDS011;14345;48.272;25.926;2022-12-18T21:29:18;37.90;;;20.80;;
26750;SDS011;14345;48.272;25.926;2022-12-18T21:31:44;40.80;;;20.10;;
26750;SDS011;14345;48.272;25.926;2022-12-18T21:34:15;38.05;;;20.10;;
26750;SDS011;14345;48.272;25.926;2022-12-18T21:36:42;37.65;;;18.98;;
26750;SDS011;14345;48.272;25.926;2022-12-18T21:39:08;36.78;;;18.17;;
26750;SDS011;14345;48.272;25.926;2022-12-18T21:41:34;37.03;;;19.33;;
26750;SDS011;14345;48.272;25.926;2022-12-18T21:44:18;40.05;;;20.40;;
26750;SDS011;14345;48.272;25.926;2022-12-18T21:46:45;38.53;;;18.48;;
26750;SDS011;14345;48.272;25.926;2022-12-18T21:49:12;39.00;;;20.00;;
26750;SDS011;14345;48.272;25.926;2022-12-18T21:51:38;37.08;;;19.17;;
26750;SDS011;14345;48.272;25.926;2022-12-18T21:54:04;40.35;;;20.40;;
26750;SDS011;14345;48.272;25.926;2022-12-18T21:56:47;47.83;;;22.77;;
26750;SDS011;14345;48.272;25.926;2022-12-18T21:59:14;38.28;;;20.17;;
26750;SDS011;14345;48.272;25.926;2022-12-18T22:01:41;43.58;;;21.15;;
26750;SDS011;14345;48.272;25.926;2022-12-18T22:04:07;36.08;;;20.00;;
26750;SDS011;14345;48.272;25.926;2022-12-18T22:06:33;38.50;;;20.08;;
26750;SDS011;14345;48.272;25.926;2022-12-18T22:08:59;41.28;;;20.58;;
26750;SDS011;14345;48.272;25.926;2022-12-18T22:11:25;45.40;;;22.00;;
26750;SDS011;14345;48.272;25.926;2022-12-18T22:13:51;42.30;;;22.08;;
26750;SDS011;14345;48.272;25.926;2022-12-18T22:16:17;41.15;;;21.98;;
26750;SDS011;14345;48.272;25.926;2022-12-18T22:18:43;46.28;;;21.17;;
26750;SDS011;14345;48.272;25.926;2022-12-18T22:21:20;46.65;;;22.15;;
